Time;durP1;ratioP1;P1;durP2;ratioP2;P2;SDS_P1;SDS_P2;PMS_P1;PMS_P2;Temp;Humidity;BMP_temperature;BMP_pressure;BME280_temperature;BME280_humidity;BME280_pressure;Samples;Min_cycle;Max_cycle;Signal;HPM_P1;HPM_P2
2023/06/21 02:02:08;;;;;;;15.20;11.10;;;;;;;;;;4489710;27;20051;-76
2023/06/21 02:04:41;;;;;;;22.23;11.18;;;;;;;;;;4335783;33;20119;-76
2023/06/21 02:07:08;;;;;;;14.70;11.60;;;;;;;;;;4321623;33;20044;-76
2023/06/21 02:09:35;;;;;;;13.93;10.77;;;;;;;;;;4309282;33;20061;-76
2023/06/21 02:12:01;;;;;;;15.05;11.50;;;;;;;;;;4295541;33;20054;-76
2023/06/21 02:14:28;;;;;;;14.68;10.50;;;;;;;;;;4279608;33;20052;-74
2023/06/21 02:16:54;;;;;;;16.65;10.80;;;;;;;;;;4279274;33;20464;-75
2023/06/21 02:19:22;;;;;;;13.38;11.32;;;;;;;;;;4293934;33;20054;-73
2023/06/21 02:21:48;;;;;;;14.18;10.45;;;;;;;;;;4293533;33;20067;-74
2023/06/21 02:24:14;;;;;;;14.38;10.57;;;;;;;;;;4294324;33;20049;-74
2023/06/21 02:26:41;;;;;;;15.38;11.65;;;;;;;;;;4292650;33;20079;-74
2023/06/21 02:29:11;;;;;;;13.70;11.35;;;;;;;;;;4293932;33;20076;-74
2023/06/21 02:31:38;;;;;;;14.60;11.40;;;;;;;;;;4279952;33;20042;-74
2023/06/21 02:34:05;;;;;;;12.95;11.65;;;;;;;;;;4275609;33;20396;-74
2023/06/21 02:36:30;;;;;;;17.37;11.85;;;;;;;;;;4258182;33;20206;-76
2023/06/21 02:38:57;;;;;;;11.88;10.68;;;;;;;;;;4264675;33;20069;-74
2023/06/21 02:41:24;;;;;;;14.63;11.88;;;;;;;;;;4277142;33;20080;-74
2023/06/21 02:43:53;;;;;;;12.25;10.60;;;;;;;;;;4254342;33;20038;-74
2023/06/21 02:46:20;;;;;;;16.98;12.45;;;;;;;;;;4232505;33;20026;-75
2023/06/21 02:48:47;;;;;;;17.58;10.60;;;;;;;;;;4235436;33;20062;-76
2023/06/21 02:51:12;;;;;;;22.75;11.95;;;;;;;;;;4236598;33;20160;-75
2023/06/21 02:53:39;;;;;;;17.42;11.35;;;;;;;;;;4237060;33;20056;-75
2023/06/21 02:56:05;;;;;;;12.73;10.93;;;;;;;;;;4236640;33;20421;-75
2023/06/21 02:58:31;;;;;;;17.55;11.50;;;;;;;;;;4247286;33;20042;-75
2023/06/21 03:00:58;;;;;;;18.58;12.25;;;;;;;;;;4248609;33;20035;-75
2023/06/21 03:03:25;;;;;;;21.00;12.00;;;;;;;;;;4221835;33;20067;-74
2023/06/21 03:05:50;;;;;;;17.92;11.77;;;;;;;;;;4222948;34;20073;-75
2023/06/21 03:08:17;;;;;;;16.35;11.52;;;;;;;;;;4225887;33;20243;-75
2023/06/21 03:10:43;;;;;;;15.35;11.73;;;;;;;;;;4250359;33;20076;-74
2023/06/21 03:13:09;;;;;;;16.25;11.35;;;;;;;;;;4248776;33;20057;-74
2023/06/21 03:15:35;;;;;;;14.30;11.07;;;;;;;;;;4250294;33;20022;-74
2023/06/21 03:18:02;;;;;;;20.98;12.23;;;;;;;;;;4230073;33;20088;-75
2023/06/21 03:20:28;;;;;;;17.67;11.57;;;;;;;;;;4240511;33;20904;-75
2023/06/21 03:22:54;;;;;;;18.70;11.88;;;;;;;;;;4261204;33;20063;-75
2023/06/21 03:25:20;;;;;;;14.63;12.93;;;;;;;;;;4264880;33;20088;-74
2023/06/21 03:27:47;;;;;;;13.80;11.48;;;;;;;;;;4264002;33;20241;-74
2023/06/21 03:30:13;;;;;;;14.75;11.90;;;;;;;;;;4264794;33;20022;-74
2023/06/21 03:32:46;;;;;;;13.85;12.07;;;;;;;;;;4274466;33;20076;-75
2023/06/21 03:35:12;;;;;;;;;;;;;;;;;;4298976;33;20052;-75
2023/06/21 03:37:39;;;;;;;16.45;12.23;;;;;;;;;;4293262;33;19983;-74
2023/06/21 03:40:08;;;;;;;15.10;11.55;;;;;;;;;;4286241;33;20398;-77
2023/06/21 03:42:34;;;;;;;13.95;11.90;;;;;;;;;;4293357;33;20067;-76
2023/06/21 03:45:00;;;;;;;16.83;12.70;;;;;;;;;;4291425;33;20048;-77
2023/06/21 03:47:27;;;;;;;16.58;11.73;;;;;;;;;;4293285;33;20057;-74
2023/06/21 03:49:57;;;;;;;18.75;11.50;;;;;;;;;;4280477;33;20101;-75
2023/06/21 03:52:24;;;;;;;19.90;11.65;;;;;;;;;;4289226;33;20494;-73
2023/06/21 03:54:53;;;;;;;13.05;10.55;;;;;;;;;;4275180;33;20067;-74
2023/06/21 03:57:19;;;;;;;15.05;11.45;;;;;;;;;;4278836;33;20475;-74
2023/06/21 03:59:45;;;;;;;13.18;11.15;;;;;;;;;;4278875;33;20041;-78
2023/06/21 04:02:12;;;;;;;14.68;11.73;;;;;;;;;;4276723;33;20083;-77
2023/06/21 04:04:38;;;;;;;14.60;10.43;;;;;;;;;;4262349;33;20042;-78
2023/06/21 04:07:05;;;;;;;13.65;11.02;;;;;;;;;;4263061;33;20397;-78
2023/06/21 04:09:31;;;;;;;13.73;11.02;;;;;;;;;;4268053;33;20029;-78
2023/06/21 04:11:57;;;;;;;17.77;10.57;;;;;;;;;;4260680;33;20093;-76
2023/06/21 04:14:26;;;;;;;13.62;11.80;;;;;;;;;;4270714;33;20041;-78
2023/06/21 04:16:53;;;;;;;12.20;10.75;;;;;;;;;;4274984;33;20068;-78
2023/06/21 04:19:19;;;;;;;28.27;13.07;;;;;;;;;;4267444;33;20087;-81
2023/06/21 04:21:45;;;;;;;18.15;11.65;;;;;;;;;;4266273;33;20453;-75
2023/06/21 04:24:17;;;;;;;12.07;10.80;;;;;;;;;;4270923;33;20195;-76
2023/06/21 04:26:44;;;;;;;19.85;11.48;;;;;;;;;;4288433;33;20112;-74
2023/06/21 04:29:10;;;;;;;21.70;12.13;;;;;;;;;;4298371;33;20115;-82
2023/06/21 04:31:37;;;;;;;15.18;12.05;;;;;;;;;;4299521;33;20059;-84
2023/06/21 04:34:04;;;;;;;15.73;12.10;;;;;;;;;;4284502;33;20095;-85
2023/06/21 04:36:30;;;;;;;19.37;11.75;;;;;;;;;;4278597;33;20067;-86
2023/06/21 04:38:56;;;;;;;31.17;12.25;;;;;;;;;;4275848;33;20038;-74
2023/06/21 04:41:23;;;;;;;17.40;12.50;;;;;;;;;;4278732;33;20070;-85
2023/06/21 04:43:50;;;;;;;17.33;11.55;;;;;;;;;;4302838;33;20053;-86
2023/06/21 04:46:17;;;;;;;20.75;11.00;;;;;;;;;;4307738;33;20049;-86
2023/06/21 04:48:46;;;;;;;25.05;12.20;;;;;;;;;;4306657;33;20067;-76
2023/06/21 04:51:15;;;;;;;19.15;12.65;;;;;;;;;;4302305;33;20045;-79
2023/06/21 04:53:44;;;;;;;17.08;11.05;;;;;;;;;;4308236;33;20523;-77
2023/06/21 04:56:12;;;;;;;16.37;10.93;;;;;;;;;;4307415;33;20057;-77
2023/06/21 04:58:39;;;;;;;16.87;12.63;;;;;;;;;;4295707;33;20687;-78
2023/06/21 05:01:08;;;;;;;13.88;11.02;;;;;;;;;;4291636;33;20045;-77
2023/06/21 05:03:34;;;;;;;19.02;11.60;;;;;;;;;;4281199;33;20069;-79
2023/06/21 05:06:06;;;;;;;20.52;12.18;;;;;;;;;;4280772;33;20041;-77
2023/06/21 05:08:32;;;;;;;22.67;12.07;;;;;;;;;;4280569;33;20470;-79
2023/06/21 05:10:59;;;;;;;21.17;12.02;;;;;;;;;;4278835;33;20206;-78
2023/06/21 05:13:25;;;;;;;18.67;12.55;;;;;;;;;;4280430;33;20104;-78
2023/06/21 05:15:51;;;;;;;20.70;12.37;;;;;;;;;;4280244;33;20906;-79
2023/06/21 05:18:17;;;;;;;21.52;12.00;;;;;;;;;;4280432;33;20097;-78
2023/06/21 05:20:43;;;;;;;25.58;11.52;;;;;;;;;;4278728;33;20440;-79
2023/06/21 05:23:09;;;;;;;44.20;12.57;;;;;;;;;;4282219;33;20057;-77
2023/06/21 05:25:36;;;;;;;18.52;12.73;;;;;;;;;;4285264;33;20549;-78
2023/06/21 05:28:02;;;;;;;17.92;12.25;;;;;;;;;;4288239;33;20048;-78
2023/06/21 05:30:28;;;;;;;13.73;11.07;;;;;;;;;;4306311;33;20809;-78
2023/06/21 05:32:54;;;;;;;16.55;11.55;;;;;;;;;;4308906;33;20058;-80
2023/06/21 05:35:20;;;;;;;16.25;11.38;;;;;;;;;;4326507;33;20065;-80
2023/06/21 05:37:46;;;;;;;23.25;12.63;;;;;;;;;;4338245;33;20131;-79
2023/06/21 05:40:13;;;;;;;18.30;11.73;;;;;;;;;;4334145;33;20066;-79
2023/06/21 05:42:40;;;;;;;23.35;11.77;;;;;;;;;;4334828;33;20052;-80
2023/06/21 05:47:40;;;;;;;22.85;11.32;;;;;;;;;;4339308;33;20060;-80
2023/06/21 05:50:06;;;;;;;20.02;11.52;;;;;;;;;;4340634;33;20052;-81
2023/06/21 05:52:32;;;;;;;22.52;11.45;;;;;;;;;;4340100;33;20070;-82
2023/06/21 05:54:58;;;;;;;15.85;10.98;;;;;;;;;;4339070;33;20048;-79
2023/06/21 05:57:26;;;;;;;23.40;11.12;;;;;;;;;;4338558;33;20052;-78
2023/06/21 05:59:53;;;;;;;28.35;11.93;;;;;;;;;;4337163;33;20771;-80
2023/06/21 06:02:26;;;;;;;21.30;12.52;;;;;;;;;;4335134;33;20406;-83
2023/06/21 06:04:53;;;;;;;19.45;12.23;;;;;;;;;;4320090;33;20056;-81
2023/06/21 06:07:19;;;;;;;27.17;12.45;;;;;;;;;;4319970;33;20036;-76
2023/06/21 06:09:45;;;;;;;14.05;11.95;;;;;;;;;;4321522;33;20904;-81
2023/06/21 06:12:11;;;;;;;19.95;12.70;;;;;;;;;;4322935;33;20478;-80
2023/06/21 06:14:37;;;;;;;20.98;11.85;;;;;;;;;;4322746;33;20079;-80
2023/06/21 06:17:04;;;;;;;22.92;12.45;;;;;;;;;;4321231;33;20070;-81
2023/06/21 06:19:30;;;;;;;19.23;12.02;;;;;;;;;;4321683;33;20048;-77
2023/06/21 06:21:56;;;;;;;23.27;12.75;;;;;;;;;;4321608;33;20486;-78
2023/06/21 06:24:22;;;;;;;25.10;12.45;;;;;;;;;;4314549;33;20227;-78
2023/06/21 06:26:48;;;;;;;20.27;12.45;;;;;;;;;;4289539;33;20046;-76
2023/06/21 06:29:14;;;;;;;19.83;13.43;;;;;;;;;;4272300;33;20041;-73
2023/06/21 06:31:40;;;;;;;20.20;12.45;;;;;;;;;;4274107;33;20400;-79
2023/06/21 06:34:07;;;;;;;24.58;12.93;;;;;;;;;;4262763;33;20045;-76
2023/06/21 06:36:33;;;;;;;20.88;12.65;;;;;;;;;;4269414;33;20072;-76
2023/06/21 06:38:59;;;;;;;18.48;11.93;;;;;;;;;;4279538;33;20069;-78
2023/06/21 06:41:27;;;;;;;20.83;12.98;;;;;;;;;;4264898;33;20066;-84
2023/06/21 06:43:53;;;;;;;26.25;14.25;;;;;;;;;;4255112;33;20071;-79
2023/06/21 06:46:19;;;;;;;15.80;11.93;;;;;;;;;;4276757;33;20065;-82
2023/06/21 06:48:45;;;;;;;25.45;12.77;;;;;;;;;;4276200;33;20189;-83
2023/06/21 06:51:11;;;;;;;23.73;13.38;;;;;;;;;;4269039;33;20062;-83
2023/06/21 06:53:37;;;;;;;24.20;13.52;;;;;;;;;;4275552;33;20584;-81
2023/06/21 06:56:04;;;;;;;18.10;13.27;;;;;;;;;;4260885;33;20042;-81
2023/06/21 06:58:30;;;;;;;29.25;14.50;;;;;;;;;;4263355;33;20124;-83
2023/06/21 07:00:56;;;;;;;18.02;13.95;;;;;;;;;;4285986;33;20402;-83
2023/06/21 07:03:22;;;;;;;23.15;13.38;;;;;;;;;;4293689;33;20041;-83
2023/06/21 07:05:49;;;;;;;17.45;13.00;;;;;;;;;;4279124;33;20061;-82
2023/06/21 07:08:15;;;;;;;28.02;13.68;;;;;;;;;;4277102;33;20038;-78
2023/06/21 07:10:42;;;;;;;20.33;14.32;;;;;;;;;;4277394;33;20134;-82
2023/06/21 07:13:08;;;;;;;22.70;12.40;;;;;;;;;;4271162;33;20045;-81
2023/06/21 07:15:34;;;;;;;14.85;12.10;;;;;;;;;;4265361;33;20076;-81
2023/06/21 07:18:00;;;;;;;22.10;13.93;;;;;;;;;;4273125;33;20097;-77
2023/06/21 07:20:27;;;;;;;22.27;13.30;;;;;;;;;;4276695;33;20075;-79
2023/06/21 07:22:59;;;;;;;27.83;13.18;;;;;;;;;;4284965;33;20395;-82
2023/06/21 07:25:26;;;;;;;20.25;14.70;;;;;;;;;;4283554;33;20050;-80
2023/06/21 07:27:52;;;;;;;24.50;14.25;;;;;;;;;;4289405;33;20075;-80
2023/06/21 07:30:20;;;;;;;26.05;13.80;;;;;;;;;;4306394;33;20060;-79
2023/06/21 07:32:47;;;;;;;20.83;12.52;;;;;;;;;;4280972;33;20120;-81
2023/06/21 07:35:14;;;;;;;22.92;12.80;;;;;;;;;;4278348;33;20067;-78
2023/06/21 07:37:44;;;;;;;16.83;11.68;;;;;;;;;;4289732;33;20069;-79
2023/06/21 07:40:11;;;;;;;20.80;13.02;;;;;;;;;;4290906;33;20053;-79
2023/06/21 07:42:37;;;;;;;25.23;13.80;;;;;;;;;;4295007;33;20482;-78
2023/06/21 07:45:04;;;;;;;22.50;12.75;;;;;;;;;;4307208;33;20071;-77
2023/06/21 07:47:31;;;;;;;19.60;13.30;;;;;;;;;;4310521;33;20064;-81
2023/06/21 07:49:57;;;;;;;21.17;13.40;;;;;;;;;;4325429;33;20105;-77
2023/06/21 07:52:23;;;;;;;14.90;12.20;;;;;;;;;;4325441;33;20040;-81
2023/06/21 07:54:50;;;;;;;26.52;14.20;;;;;;;;;;4321042;33;20109;-83
2023/06/21 07:57:17;;;;;;;18.23;12.50;;;;;;;;;;4264861;33;20377;-82
2023/06/21 07:59:44;;;;;;;31.02;12.93;;;;;;;;;;4267736;33;20119;-78
2023/06/21 08:02:10;;;;;;;31.52;12.75;;;;;;;;;;4275558;33;20049;-84
2023/06/21 08:04:37;;;;;;;23.38;13.32;;;;;;;;;;4276369;33;20045;-81
2023/06/21 08:07:03;;;;;;;17.80;12.95;;;;;;;;;;4277994;33;20197;-83
2023/06/21 08:09:29;;;;;;;20.80;13.32;;;;;;;;;;4259170;33;20072;-81
2023/06/21 08:12:02;;;;;;;23.98;12.43;;;;;;;;;;4256929;33;20038;-83
2023/06/21 08:14:28;;;;;;;15.95;13.50;;;;;;;;;;4246104;33;20105;-83
2023/06/21 08:16:55;;;;;;;19.00;12.43;;;;;;;;;;4247907;33;20134;-83
2023/06/21 08:19:21;;;;;;;26.90;13.80;;;;;;;;;;4242056;33;20051;-81
2023/06/21 08:21:47;;;;;;;19.40;13.15;;;;;;;;;;4221333;33;20089;-79
2023/06/21 08:24:13;;;;;;;29.40;12.07;;;;;;;;;;4218328;33;20035;-81
2023/06/21 08:26:39;;;;;;;16.87;12.57;;;;;;;;;;4220518;33;20130;-80
2023/06/21 08:29:06;;;;;;;21.30;15.25;;;;;;;;;;4232635;33;20063;-79
2023/06/21 08:31:32;;;;;;;20.95;13.10;;;;;;;;;;4236456;33;20450;-82
2023/06/21 08:33:58;;;;;;;25.77;13.10;;;;;;;;;;4237439;33;20038;-79
2023/06/21 08:36:26;;;;;;;20.00;12.75;;;;;;;;;;4236931;33;20127;-79
2023/06/21 08:38:52;;;;;;;20.95;11.38;;;;;;;;;;4236602;33;20084;-78
2023/06/21 08:41:18;;;;;;;25.05;12.15;;;;;;;;;;4238871;33;20038;-81
2023/06/21 08:43:45;;;;;;;15.30;12.20;;;;;;;;;;4253541;33;20072;-83
2023/06/21 08:46:11;;;;;;;23.00;12.23;;;;;;;;;;4260239;33;20035;-81
2023/06/21 08:48:41;;;;;;;24.70;13.95;;;;;;;;;;4244731;33;20072;-78
2023/06/21 08:51:06;;;;;;;17.50;12.95;;;;;;;;;;4250082;33;20041;-81
2023/06/21 08:53:47;;;;;;;19.90;11.73;;;;;;;;;;4269449;33;20928;-79
2023/06/21 08:56:16;;;;;;;18.43;13.23;;;;;;;;;;4278984;33;20041;-77
2023/06/21 08:58:48;;;;;;;22.37;13.45;;;;;;;;;;4279373;33;20034;-78
2023/06/21 09:01:14;;;;;;;;;;;;;;;;;;4286679;33;20052;-79
2023/06/21 09:03:50;;;;;;;28.62;13.88;;;;;;;;;;4292740;33;19987;-78
2023/06/21 09:06:19;;;;;;;16.52;11.88;;;;;;;;;;4293416;33;20030;-75
2023/06/21 09:08:46;;;;;;;22.25;12.70;;;;;;;;;;4289881;33;20208;-80
2023/06/21 09:11:13;;;;;;;21.27;12.95;;;;;;;;;;4288777;33;20065;-81
2023/06/21 09:13:40;;;;;;;25.65;13.38;;;;;;;;;;4287819;33;20095;-79
2023/06/21 09:16:06;;;;;;;23.33;14.30;;;;;;;;;;4313455;33;20037;-76
2023/06/21 09:18:38;;;;;;;25.17;15.63;;;;;;;;;;4308489;33;20078;-79
2023/06/21 09:21:05;;;;;;;21.20;14.18;;;;;;;;;;4307985;33;20149;-76
2023/06/21 09:23:31;;;;;;;17.77;14.25;;;;;;;;;;4313839;33;20123;-78
2023/06/21 09:25:57;;;;;;;24.77;14.10;;;;;;;;;;4305204;33;20084;-86
2023/06/21 09:28:24;;;;;;;25.67;12.85;;;;;;;;;;4311840;33;20466;-84
2023/06/21 09:30:50;;;;;;;20.52;14.32;;;;;;;;;;4325705;33;20057;-79
2023/06/21 09:33:16;;;;;;;19.25;13.85;;;;;;;;;;4307558;33;20053;-82
2023/06/21 09:35:43;;;;;;;22.98;14.55;;;;;;;;;;4306783;33;20119;-81
2023/06/21 09:38:19;;;;;;;18.62;13.73;;;;;;;;;;4294146;33;20160;-77
2023/06/21 09:40:46;;;;;;;19.58;13.95;;;;;;;;;;4295475;33;20103;-80
2023/06/21 09:43:12;;;;;;;24.60;14.82;;;;;;;;;;4293417;33;20083;-81
2023/06/21 09:45:38;;;;;;;25.65;14.75;;;;;;;;;;4294237;33;20096;-80
2023/06/21 09:48:04;;;;;;;15.57;12.70;;;;;;;;;;4263652;33;20030;-78
2023/06/21 09:50:41;;;;;;;23.60;14.15;;;;;;;;;;4237695;33;20052;-83
2023/06/21 09:53:11;;;;;;;19.52;14.32;;;;;;;;;;4240565;33;20094;-82
2023/06/21 09:55:43;;;;;;;18.05;14.27;;;;;;;;;;4245140;33;20093;-82
2023/06/21 09:58:09;;;;;;;18.00;13.88;;;;;;;;;;4238124;33;20064;-80
2023/06/21 10:00:35;;;;;;;21.60;14.70;;;;;;;;;;4244831;33;20058;-83
2023/06/21 10:03:02;;;;;;;17.48;12.80;;;;;;;;;;4245473;33;20074;-81
2023/06/21 10:05:28;;;;;;;19.48;14.32;;;;;;;;;;4272514;33;20105;-81
2023/06/21 10:07:57;;;;;;;20.48;13.62;;;;;;;;;;4275337;33;20060;-84
2023/06/21 10:10:23;;;;;;;24.25;14.68;;;;;;;;;;4272162;33;20057;-81
2023/06/21 10:12:52;;;;;;;16.33;14.57;;;;;;;;;;4278349;33;20049;-81
2023/06/21 10:15:18;;;;;;;17.05;13.50;;;;;;;;;;4285911;33;20089;-81
2023/06/21 10:17:45;;;;;;;26.80;12.88;;;;;;;;;;4275936;33;20054;-82
2023/06/21 10:20:20;;;;;;;22.02;14.23;;;;;;;;;;4292697;33;20067;-81
2023/06/21 10:22:51;;;;;;;18.85;15.13;;;;;;;;;;4301225;33;20067;-82
2023/06/21 10:25:19;;;;;;;17.98;15.25;;;;;;;;;;4298036;33;20080;-80
2023/06/21 10:27:46;;;;;;;27.37;13.88;;;;;;;;;;4316559;33;20480;-81
2023/06/21 10:30:19;;;;;;;19.30;14.60;;;;;;;;;;4339677;33;20748;-82
2023/06/21 10:32:47;;;;;;;21.65;13.82;;;;;;;;;;4337219;33;20544;-82
2023/06/21 10:35:15;;;;;;;23.00;14.50;;;;;;;;;;4339505;33;20511;-81
2023/06/21 10:38:02;;;;;;;16.08;13.15;;;;;;;;;;4337705;33;20491;-77
2023/06/21 10:40:29;;;;;;;24.83;14.65;;;;;;;;;;4339012;33;20044;-81
2023/06/21 10:42:58;;;;;;;17.05;14.77;;;;;;;;;;4337396;33;20107;-81
2023/06/21 10:45:24;;;;;;;29.02;14.13;;;;;;;;;;4337585;33;20102;-78
2023/06/21 10:47:53;;;;;;;19.35;12.45;;;;;;;;;;4338738;33;20052;-83
2023/06/21 10:50:19;;;;;;;17.25;12.57;;;;;;;;;;4303582;33;20041;-83
2023/06/21 10:52:47;;;;;;;16.33;13.77;;;;;;;;;;4302467;33;20052;-80
2023/06/21 10:55:14;;;;;;;14.87;12.55;;;;;;;;;;4302534;33;20138;-77
2023/06/21 10:57:40;;;;;;;23.38;13.82;;;;;;;;;;4275110;33;20057;-82
2023/06/21 11:03:04;;;;;;;17.83;13.82;;;;;;;;;;3899713;28;20188;-83
2023/06/21 11:05:32;;;;;;;18.95;13.20;;;;;;;;;;4284699;33;20079;-77
2023/06/21 11:08:04;;;;;;;18.00;13.88;;;;;;;;;;4283295;33;20552;-83
2023/06/21 11:10:31;;;;;;;17.52;12.02;;;;;;;;;;4279590;33;20059;-86
2023/06/21 11:12:58;;;;;;;17.52;12.60;;;;;;;;;;4290934;33;20052;-84
2023/06/21 11:15:25;;;;;;;17.80;13.25;;;;;;;;;;4283312;33;20053;-84
2023/06/21 11:17:55;;;;;;;19.87;13.68;;;;;;;;;;4284863;33;20061;-82
2023/06/21 11:20:23;;;;;;;23.27;16.08;;;;;;;;;;4284291;33;20390;-83
2023/06/21 11:22:56;;;;;;;22.70;13.45;;;;;;;;;;4320963;33;20073;-85
2023/06/21 11:25:23;;;;;;;22.37;14.65;;;;;;;;;;4321055;33;20049;-85
2023/06/21 11:28:08;;;;;;;35.25;15.60;;;;;;;;;;4285769;33;20045;-86
2023/06/21 11:30:36;;;;;;;15.63;13.50;;;;;;;;;;4291477;33;20041;-87
2023/06/21 11:33:02;;;;;;;19.27;13.18;;;;;;;;;;4291504;33;20045;-78
2023/06/21 11:35:48;;;;;;;22.95;13.43;;;;;;;;;;4268840;33;20096;-79
2023/06/21 11:38:14;;;;;;;31.98;15.65;;;;;;;;;;4263554;33;20068;-85
2023/06/21 11:40:40;;;;;;;31.35;16.50;;;;;;;;;;4277868;33;20097;-82
2023/06/21 11:43:06;;;;;;;29.10;14.43;;;;;;;;;;4280391;33;20054;-77
2023/06/21 11:45:35;;;;;;;18.55;13.50;;;;;;;;;;4275546;33;20060;-79
2023/06/21 11:48:03;;;;;;;32.20;17.55;;;;;;;;;;4271883;33;20075;-82
2023/06/21 11:50:55;;;;;;;32.92;13.57;;;;;;;;;;4272292;33;20083;-82
2023/06/21 11:53:23;;;;;;;24.45;13.90;;;;;;;;;;4265050;33;20063;-82
2023/06/21 11:55:51;;;;;;;23.60;13.98;;;;;;;;;;4267928;33;20063;-79
2023/06/21 11:58:17;;;;;;;18.87;11.77;;;;;;;;;;4273442;33;20067;-82
2023/06/21 12:00:45;;;;;;;20.52;12.90;;;;;;;;;;4286992;33;20512;-78
2023/06/21 12:03:12;;;;;;;15.73;13.80;;;;;;;;;;4306792;33;20081;-79
2023/06/21 12:05:56;;;;;;;23.73;13.93;;;;;;;;;;4292559;33;20071;-80
2023/06/21 12:08:26;;;;;;;23.30;14.30;;;;;;;;;;4297386;33;20248;-82
2023/06/21 12:10:52;;;;;;;21.48;13.30;;;;;;;;;;4294302;33;20488;-77
2023/06/21 12:13:19;;;;;;;25.00;13.18;;;;;;;;;;4297963;33;20136;-81
2023/06/21 12:15:46;;;;;;;23.90;12.32;;;;;;;;;;4283319;33;20075;-81
2023/06/21 12:18:12;;;;;;;14.68;11.52;;;;;;;;;;4290438;33;20534;-82
2023/06/21 12:20:39;;;;;;;17.05;12.25;;;;;;;;;;4291308;33;20479;-82
2023/06/21 12:23:08;;;;;;;22.42;12.80;;;;;;;;;;4289272;33;20122;-81
2023/06/21 12:25:48;;;;;;;20.58;12.43;;;;;;;;;;4292084;33;20040;-82
2023/06/21 12:28:16;;;;;;;22.45;13.10;;;;;;;;;;4287104;33;20191;-83
2023/06/21 12:30:50;;;;;;;18.80;13.02;;;;;;;;;;4296065;33;20075;-84
2023/06/21 12:33:17;;;;;;;20.17;12.40;;;;;;;;;;4301183;33;20755;-82
2023/06/21 12:35:46;;;;;;;20.40;12.75;;;;;;;;;;4308585;33;20052;-82
2023/06/21 12:38:13;;;;;;;22.27;13.50;;;;;;;;;;4333340;33;20062;-82
2023/06/21 12:41:00;;;;;;;22.42;13.30;;;;;;;;;;4332103;33;20109;-78
2023/06/21 12:43:39;;;;;;;17.55;12.80;;;;;;;;;;4331120;33;20097;-83
2023/06/21 12:46:24;;;;;;;26.17;14.20;;;;;;;;;;4336979;33;20054;-84
2023/06/21 12:48:57;;;;;;;22.17;12.07;;;;;;;;;;4340099;33;20041;-85
2023/06/21 12:51:31;;;;;;;22.77;14.02;;;;;;;;;;4332981;33;20222;-79
2023/06/21 12:53:58;;;;;;;17.48;13.57;;;;;;;;;;4333701;33;20064;-82
2023/06/21 12:56:34;;;;;;;18.37;13.23;;;;;;;;;;4340820;33;20074;-83
2023/06/21 12:59:01;;;;;;;15.85;12.98;;;;;;;;;;4337157;33;20597;-84
2023/06/21 13:01:28;;;;;;;17.12;13.02;;;;;;;;;;4337185;33;20040;-82
2023/06/21 13:03:57;;;;;;;32.28;14.98;;;;;;;;;;4336941;33;20491;-78
2023/06/21 13:06:29;;;;;;;23.87;14.93;;;;;;;;;;4324710;33;20865;-81
2023/06/21 13:08:56;;;;;;;29.45;14.25;;;;;;;;;;4328507;33;20561;-82
2023/06/21 13:11:23;;;;;;;25.98;14.32;;;;;;;;;;4324238;33;20060;-80
2023/06/21 13:13:50;;;;;;;23.33;15.32;;;;;;;;;;4322716;33;20040;-82
2023/06/21 13:16:16;;;;;;;16.85;14.40;;;;;;;;;;4262452;33;20053;-87
2023/06/21 13:18:45;;;;;;;20.02;13.32;;;;;;;;;;4255622;33;20100;-85
2023/06/21 13:21:12;;;;;;;20.67;15.38;;;;;;;;;;4259399;33;20088;-83
2023/06/21 13:23:39;;;;;;;23.27;14.50;;;;;;;;;;4261308;33;20419;-85
2023/06/21 13:26:05;;;;;;;18.10;13.48;;;;;;;;;;4257990;33;20091;-76
2023/06/21 13:28:32;;;;;;;24.77;15.35;;;;;;;;;;4261996;33;20046;-81
2023/06/21 13:30:59;;;;;;;20.25;15.60;;;;;;;;;;4241935;33;20423;-79
2023/06/21 13:33:25;;;;;;;20.65;16.30;;;;;;;;;;4250974;33;20141;-78
2023/06/21 13:35:52;;;;;;;23.92;15.75;;;;;;;;;;4320582;33;20098;-78
2023/06/21 13:38:20;;;;;;;25.37;15.20;;;;;;;;;;4325739;33;20052;-78
2023/06/21 13:40:47;;;;;;;19.52;15.80;;;;;;;;;;4336693;33;20053;-78
2023/06/21 13:43:13;;;;;;;18.15;15.15;;;;;;;;;;4333953;33;20050;-84
2023/06/21 13:45:41;;;;;;;23.70;16.05;;;;;;;;;;4333021;33;20103;-76
2023/06/21 13:48:08;;;;;;;18.80;15.35;;;;;;;;;;4334627;33;20066;-77
2023/06/21 13:50:35;;;;;;;21.92;15.18;;;;;;;;;;4333134;33;20082;-80
2023/06/21 13:53:01;;;;;;;20.37;15.52;;;;;;;;;;4337458;33;20048;-79
2023/06/21 13:55:28;;;;;;;15.98;14.27;;;;;;;;;;4333107;33;20059;-79
2023/06/21 13:57:54;;;;;;;15.75;12.73;;;;;;;;;;4331085;33;20041;-78
2023/06/21 14:00:21;;;;;;;17.50;12.57;;;;;;;;;;4316165;33;20108;-78
2023/06/21 14:02:48;;;;;;;19.17;13.00;;;;;;;;;;4321939;33;20086;-79
2023/06/21 14:05:15;;;;;;;22.95;11.57;;;;;;;;;;4322850;33;20087;-79
2023/06/21 14:07:42;;;;;;;18.60;11.90;;;;;;;;;;4320446;33;20454;-80
2023/06/21 14:10:09;;;;;;;14.32;11.25;;;;;;;;;;4320917;33;20079;-86
2023/06/21 14:15:10;;;;;;;15.80;11.50;;;;;;;;;;4317507;33;20078;-79
2023/06/21 14:17:36;;;;;;;20.60;11.75;;;;;;;;;;4318627;33;20052;-78
2023/06/21 14:20:10;;;;;;;18.73;12.45;;;;;;;;;;4318644;33;20179;-84
2023/06/21 14:22:36;;;;;;;14.50;11.27;;;;;;;;;;4318538;33;20049;-79
2023/06/21 14:25:03;;;;;;;16.48;13.30;;;;;;;;;;4318569;33;20499;-85
2023/06/21 14:27:30;;;;;;;20.40;12.77;;;;;;;;;;4279843;33;20214;-82
2023/06/21 14:30:03;;;;;;;26.12;13.93;;;;;;;;;;4289536;33;20079;-80
2023/06/21 14:32:30;;;;;;;18.87;13.90;;;;;;;;;;4290341;33;20048;-78
2023/06/21 14:34:56;;;;;;;19.70;14.48;;;;;;;;;;4303359;33;20424;-80
2023/06/21 14:37:24;;;;;;;30.90;15.65;;;;;;;;;;4304182;33;20040;-80
2023/06/21 14:39:51;;;;;;;22.15;15.45;;;;;;;;;;4305469;33;20165;-80
2023/06/21 14:42:17;;;;;;;19.58;15.20;;;;;;;;;;4308504;33;20045;-80
2023/06/21 14:44:44;;;;;;;22.75;15.30;;;;;;;;;;4307345;33;20434;-78
2023/06/21 14:47:11;;;;;;;23.38;14.63;;;;;;;;;;4306796;33;20100;-79
2023/06/21 14:49:40;;;;;;;22.55;14.95;;;;;;;;;;4307429;33;20210;-79
2023/06/21 14:52:06;;;;;;;21.50;16.27;;;;;;;;;;4305686;33;20614;-80
2023/06/21 14:54:33;;;;;;;20.37;15.35;;;;;;;;;;4299096;33;20188;-81
2023/06/21 14:56:59;;;;;;;20.62;14.52;;;;;;;;;;4298391;33;20124;-77
2023/06/21 14:59:25;;;;;;;17.27;15.40;;;;;;;;;;4294934;33;20477;-80
2023/06/21 15:01:51;;;;;;;20.75;14.32;;;;;;;;;;4301276;33;20055;-82
2023/06/21 15:04:18;;;;;;;26.00;14.52;;;;;;;;;;4298135;33;20115;-80
2023/06/21 15:06:44;;;;;;;19.77;14.38;;;;;;;;;;4320909;33;20045;-81
2023/06/21 15:09:10;;;;;;;19.05;14.23;;;;;;;;;;4307530;33;20107;-81
2023/06/21 15:11:38;;;;;;;19.12;13.90;;;;;;;;;;4317779;33;20511;-81
2023/06/21 15:14:04;;;;;;;16.75;13.20;;;;;;;;;;4322964;33;20534;-82
2023/06/21 15:16:31;;;;;;;14.85;12.82;;;;;;;;;;4322564;33;20052;-82
2023/06/21 15:18:58;;;;;;;16.05;14.35;;;;;;;;;;4321383;33;20051;-83
2023/06/21 15:21:24;;;;;;;16.12;13.88;;;;;;;;;;4320379;33;20450;-83
2023/06/21 15:23:50;;;;;;;17.48;12.95;;;;;;;;;;4321358;33;20252;-83
2023/06/21 15:26:16;;;;;;;16.10;12.20;;;;;;;;;;4321811;33;20062;-84
2023/06/21 15:28:42;;;;;;;15.73;12.75;;;;;;;;;;4308081;33;20074;-84
2023/06/21 15:31:08;;;;;;;18.55;12.27;;;;;;;;;;4306935;33;20108;-82
2023/06/21 15:33:35;;;;;;;15.23;12.77;;;;;;;;;;4322076;33;20363;-82
2023/06/21 15:36:00;;;;;;;15.02;11.75;;;;;;;;;;4322261;33;20029;-82
2023/06/21 15:38:27;;;;;;;16.37;10.98;;;;;;;;;;4321958;33;20044;-81
2023/06/21 15:40:53;;;;;;;11.15;9.43;;;;;;;;;;4322492;33;20066;-83
2023/06/21 15:43:20;;;;;;;10.65;9.18;;;;;;;;;;4306408;33;20564;-82
2023/06/21 15:45:46;;;;;;;11.25;7.97;;;;;;;;;;4308272;33;20045;-84
2023/06/21 15:48:12;;;;;;;8.85;8.00;;;;;;;;;;4307910;33;20323;-84
2023/06/21 15:50:38;;;;;;;11.48;9.32;;;;;;;;;;4307394;33;20113;-83
2023/06/21 15:53:05;;;;;;;10.25;8.65;;;;;;;;;;4305891;33;20056;-82
2023/06/21 15:55:31;;;;;;;17.15;9.40;;;;;;;;;;4306517;33;20037;-78
2023/06/21 15:57:57;;;;;;;11.12;9.38;;;;;;;;;;4308019;33;20078;-84
2023/06/21 16:00:23;;;;;;;16.37;9.23;;;;;;;;;;4307040;33;20049;-81
2023/06/21 16:02:50;;;;;;;11.90;9.73;;;;;;;;;;4307260;33;20464;-82
2023/06/21 16:05:15;;;;;;;10.93;9.80;;;;;;;;;;4308031;33;20037;-84
2023/06/21 16:07:42;;;;;;;13.65;9.20;;;;;;;;;;4305308;33;20049;-83
2023/06/21 16:10:08;;;;;;;18.83;10.65;;;;;;;;;;4308118;33;20210;-83
2023/06/21 16:12:34;;;;;;;12.07;10.35;;;;;;;;;;4306736;33;20060;-81
2023/06/21 16:15:00;;;;;;;12.55;10.45;;;;;;;;;;4321090;33;20107;-82
2023/06/21 16:17:26;;;;;;;12.57;10.75;;;;;;;;;;4335808;33;20047;-77
2023/06/21 16:19:52;;;;;;;11.40;9.98;;;;;;;;;;4321676;33;20421;-82
2023/06/21 16:22:19;;;;;;;13.52;9.45;;;;;;;;;;4322469;33;20051;-83
2023/06/21 16:24:45;;;;;;;19.00;10.88;;;;;;;;;;4320606;33;20127;-79
2023/06/21 16:27:11;;;;;;;14.27;11.12;;;;;;;;;;4321505;33;20533;-83
2023/06/21 16:29:37;;;;;;;16.85;11.70;;;;;;;;;;4318108;33;20064;-77